Time;durP1;ratioP1;P1;durP2;ratioP2;P2;SDS_P1;SDS_P2;PMS_P1;PMS_P2;Temp;Humidity;BMP_temperature;BMP_pressure;BME280_temperature;BME280_humidity;BME280_pressure;Samples;Min_cycle;Max_cycle;Signal;HPM_P1;HPM_P2
2023/12/13 00:00:18;;;;;;;47.20;23.40;;;;;;;1.10;100.00;100218.96;104793;1258;60451;-53
2023/12/13 00:02:46;;;;;;;47.00;23.10;;;;;;;1.12;100.00;100225.66;104874;1258;73933;-54
2023/12/13 00:05:13;;;;;;;43.10;22.70;;;;;;;1.13;100.00;100226.89;104531;1253;65669;-54
2023/12/13 00:07:41;;;;;;;39.80;21.90;;;;;;;1.14;100.00;100229.90;104853;1254;71428;-53
2023/12/13 00:10:09;;;;;;;50.00;22.00;;;;;;;1.14;100.00;100229.19;105072;1259;60534;-53
2023/12/13 00:12:36;;;;;;;39.60;22.70;;;;;;;1.15;100.00;100233.44;104667;1256;60550;-53
2023/12/13 00:15:04;;;;;;;44.70;22.20;;;;;;;1.15;100.00;100232.91;104695;1253;71859;-53
2023/12/13 00:17:32;;;;;;;41.90;21.20;;;;;;;1.15;100.00;100231.14;107753;1257;66286;-54
2023/12/13 00:20:01;;;;;;;40.10;20.20;;;;;;;1.16;100.00;100231.14;104775;1253;72684;-54
2023/12/13 00:22:28;;;;;;;41.50;21.00;;;;;;;1.16;100.00;100233.61;105222;1253;60540;-54
2023/12/13 00:24:56;;;;;;;38.80;20.70;;;;;;;1.18;100.00;100235.38;105204;1253;60440;-54
2023/12/13 00:27:23;;;;;;;41.00;20.30;;;;;;;1.20;100.00;100240.13;104863;1258;73858;-53
2023/12/13 00:29:51;;;;;;;38.90;20.30;;;;;;;1.22;100.00;100238.72;104779;1253;65937;-53
2023/12/13 00:32:18;;;;;;;41.20;21.90;;;;;;;1.22;100.00;100236.77;104774;1254;71486;-53
2023/12/13 00:34:46;;;;;;;41.60;21.90;;;;;;;1.23;100.00;100239.59;104625;1259;60541;-53
2023/12/13 00:37:13;;;;;;;46.20;23.20;;;;;;;1.22;100.00;100235.89;104883;1259;60355;-53
2023/12/13 00:39:42;;;;;;;39.40;19.60;;;;;;;1.23;100.00;100235.17;104771;1256;75536;-53
2023/12/13 00:42:09;;;;;;;33.50;18.50;;;;;;;1.22;100.00;100235.35;104737;1259;66770;-54
2023/12/13 00:44:36;;;;;;;40.60;20.60;;;;;;;1.23;100.00;100234.65;104904;1254;73220;-54
2023/12/13 00:47:04;;;;;;;39.30;18.80;;;;;;;1.24;100.00;100232.70;104680;1257;61126;-54
2023/12/13 00:49:31;;;;;;;36.60;18.90;;;;;;;1.25;100.00;100229.70;104748;1254;61097;-54
2023/12/13 00:51:59;;;;;;;38.60;20.20;;;;;;;1.26;100.00;100227.58;108937;1253;73559;-55
2023/12/13 00:54:26;;;;;;;45.30;22.10;;;;;;;1.26;100.00;100225.29;109052;1253;66918;-55
2023/12/13 00:56:54;;;;;;;41.00;21.30;;;;;;;1.27;100.00;100229.52;108951;1254;73580;-55
2023/12/13 00:59:21;;;;;;;42.10;19.80;;;;;;;1.27;100.00;100230.75;108980;1257;60789;-52
2023/12/13 01:01:48;;;;;;;36.80;18.80;;;;;;;1.28;100.00;100231.98;106157;1256;60863;-53
2023/12/13 01:04:16;;;;;;;38.90;19.90;;;;;;;1.28;100.00;100228.79;104723;1258;74897;-53
2023/12/13 01:06:43;;;;;;;39.60;21.00;;;;;;;1.28;100.00;100226.14;104801;1253;67434;-54
2023/12/13 01:09:11;;;;;;;39.30;19.20;;;;;;;1.30;100.00;100225.24;104707;1259;71685;-54
2023/12/13 01:11:38;;;;;;;42.70;21.10;;;;;;;1.31;100.00;100222.06;104933;1257;60433;-54
2023/12/13 01:14:08;;;;;;;38.20;20.10;;;;;;;1.31;100.00;100221.54;104664;1259;59343;-55
2023/12/13 01:16:35;;;;;;;45.40;22.00;;;;;;;1.31;100.00;100223.48;104754;1256;72624;-55
2023/12/13 01:19:03;;;;;;;40.60;21.60;;;;;;;1.31;100.00;100221.71;104711;1254;67240;-54
2023/12/13 01:21:30;;;;;;;43.40;21.70;;;;;;;1.32;100.00;100220.83;104835;1259;71492;-54
2023/12/13 01:24:00;;;;;;;38.80;18.90;;;;;;;1.31;100.00;100222.59;108729;1258;61317;-54
2023/12/13 01:26:27;;;;;;;41.80;19.80;;;;;;;1.31;100.00;100219.95;108917;1257;59128;-53
2023/12/13 01:28:55;;;;;;;39.20;21.00;;;;;;;1.30;100.00;100225.77;105170;1256;72615;-53
2023/12/13 01:31:22;;;;;;;34.90;18.90;;;;;;;1.31;100.00;100231.96;106208;1258;66957;-53
2023/12/13 01:33:50;;;;;;;45.90;22.20;;;;;;;1.31;100.00;100233.56;104955;1259;72782;-52
2023/12/13 01:36:18;;;;;;;40.50;20.30;;;;;;;1.32;100.00;100237.80;104935;1257;60548;-52
2023/12/13 01:38:45;;;;;;;40.60;19.80;;;;;;;1.31;100.00;100240.10;105007;1259;60430;-52
2023/12/13 01:41:13;;;;;;;36.00;17.60;;;;;;;1.31;100.00;100239.39;104954;1259;72589;-52
2023/12/13 01:43:41;;;;;;;38.40;17.70;;;;;;;1.30;100.00;100238.34;104952;1259;67117;-52
2023/12/13 01:46:09;;;;;;;42.30;20.30;;;;;;;1.29;100.00;100236.92;105666;1257;71448;-52
2023/12/13 01:48:37;;;;;;;36.50;17.80;;;;;;;1.29;100.00;100232.85;106735;1257;60542;-52
2023/12/13 01:51:05;;;;;;;39.20;19.70;;;;;;;1.30;100.00;100230.90;105206;1259;60598;-52
2023/12/13 01:53:32;;;;;;;36.40;18.40;;;;;;;1.31;100.00;100233.38;105349;1258;73896;-52
2023/12/13 01:56:00;;;;;;;44.40;20.40;;;;;;;1.31;100.00;100232.15;105039;1259;66258;-53
2023/12/13 01:58:27;;;;;;;38.10;19.20;;;;;;;1.30;100.00;100227.55;105062;1256;72690;-52
2023/12/13 02:00:55;;;;;;;36.70;18.50;;;;;;;1.30;100.00;100229.14;105233;1257;60474;-53
2023/12/13 02:03:23;;;;;;;34.80;19.30;;;;;;;1.29;100.00;100224.54;105276;1257;60448;-52
2023/12/13 02:05:53;;;;;;;29.50;17.50;;;;;;;1.28;100.00;100222.95;105202;1262;73977;-52
2023/12/13 02:08:22;;;;;;;36.40;18.70;;;;;;;1.27;100.00;100225.80;105110;1259;65624;-52
2023/12/13 02:10:50;;;;;;;36.50;18.00;;;;;;;1.29;100.00;100227.20;105343;1258;72777;-52
2023/12/13 02:13:17;;;;;;;41.60;20.30;;;;;;;1.30;100.00;100229.49;105295;1256;60554;-53
2023/12/13 02:15:45;;;;;;;39.20;20.50;;;;;;;1.32;100.00;100235.69;104852;1260;62343;-53
2023/12/13 02:18:14;;;;;;;45.50;21.30;;;;;;;1.32;100.00;100237.63;104916;1253;75588;-53
2023/12/13 02:20:43;;;;;;;46.20;22.20;;;;;;;1.32;100.00;100242.23;105174;1258;65872;-53
2023/12/13 02:23:10;;;;;;;39.40;21.80;;;;;;;1.32;100.00;100237.63;104955;1257;72856;-53
2023/12/13 02:26:00;;;;;;;43.60;19.70;;;;;;;1.32;100.00;100236.56;104949;1254;60582;-53
2023/12/13 02:28:28;;;;;;;40.10;20.00;;;;;;;1.33;100.00;100249.12;102211;1259;3654836;-52
2023/12/13 02:31:58;;;;;;;35.80;18.40;;;;;;;1.29;100.00;100342.83;101891;1294;600478;-52
2023/12/13 02:34:25;;;;;;;37.20;19.80;;;;;;;1.30;100.00;100376.08;104550;1267;60829;-53
2023/12/13 02:36:53;;;;;;;39.50;19.00;;;;;;;1.31;100.00;100354.68;104248;1266;60004;-52
2023/12/13 02:39:21;;;;;;;40.00;19.90;;;;;;;1.32;100.00;100340.54;104230;1265;73425;-52
2023/12/13 02:41:48;;;;;;;39.80;20.10;;;;;;;1.33;100.00;100332.23;104002;1267;66202;-52
2023/12/13 02:44:15;;;;;;;41.70;20.90;;;;;;;1.33;100.00;100336.65;103927;1266;72339;-53
2023/12/13 02:46:43;;;;;;;41.60;20.30;;;;;;;1.33;100.00;100335.41;101422;1262;3863808;-52
2023/12/13 02:49:10;;;;;;;41.30;20.90;;;;;;;1.34;100.00;100333.81;104730;1260;59320;-53
2023/12/13 02:51:38;;;;;;;38.70;19.40;;;;;;;1.32;100.00;100326.39;104536;1256;60200;-53
2023/12/13 02:54:05;;;;;;;37.80;19.40;;;;;;;1.31;100.00;100324.09;104893;1257;59372;-51
2023/12/13 02:56:33;;;;;;;35.60;18.60;;;;;;;1.31;100.00;100322.67;104767;1257;71476;-52
2023/12/13 02:59:00;;;;;;;34.90;19.30;;;;;;;1.32;100.00;100316.66;104739;1256;60005;-52
2023/12/13 03:01:29;;;;;;;40.00;20.50;;;;;;;1.32;100.00;100311.90;104830;1255;59841;-53
2023/12/13 03:03:56;;;;;;;42.20;21.00;;;;;;;1.32;100.00;100315.95;105237;1256;73453;-52
2023/12/13 03:06:24;;;;;;;37.00;19.10;;;;;;;1.33;100.00;100314.90;104732;1256;67450;-50
2023/12/13 03:08:51;;;;;;;42.30;20.30;;;;;;;1.33;100.00;100319.15;104738;1256;72717;-52
2023/12/13 03:11:20;;;;;;;40.80;21.30;;;;;;;1.32;100.00;100319.32;104604;1262;59743;-52
2023/12/13 03:13:48;;;;;;;36.30;17.40;;;;;;;1.32;100.00;100324.27;104817;1256;60570;-52
2023/12/13 03:16:15;;;;;;;40.60;20.50;;;;;;;1.33;100.00;100327.63;104654;1256;72335;-52
2023/12/13 03:18:43;;;;;;;42.40;20.10;;;;;;;1.33;100.00;100328.87;104518;1257;65788;-52
2023/12/13 03:21:10;;;;;;;42.00;20.30;;;;;;;1.33;100.00;100329.92;104696;1259;72778;-52
2023/12/13 03:23:38;;;;;;;46.50;21.10;;;;;;;1.33;100.00;100338.59;104640;1261;60683;-52
2023/12/13 03:26:06;;;;;;;42.40;21.10;;;;;;;1.32;100.00;100333.82;104776;1259;59698;-53
2023/12/13 03:28:33;;;;;;;39.10;19.20;;;;;;;1.33;100.00;100333.64;104551;1259;72242;-52
2023/12/13 03:31:00;;;;;;;46.00;19.50;;;;;;;1.33;100.00;100329.57;104753;1257;64738;-52
2023/12/13 03:33:28;;;;;;;40.50;18.90;;;;;;;1.33;100.00;100324.09;104520;1256;71387;-51
2023/12/13 03:35:56;;;;;;;40.20;20.10;;;;;;;1.35;100.00;100327.29;105279;1260;61472;-53
2023/12/13 03:38:23;;;;;;;43.20;19.40;;;;;;;1.36;100.00;100337.16;104622;1256;59643;-52
2023/12/13 03:40:51;;;;;;;39.40;19.00;;;;;;;1.37;100.00;100344.59;104722;1260;70910;-52
2023/12/13 03:43:18;;;;;;;39.90;19.40;;;;;;;1.37;100.00;100345.46;104629;1258;64908;-52
2023/12/13 03:45:46;;;;;;;41.80;18.60;;;;;;;1.38;100.00;100340.69;104632;1256;73600;-52
2023/12/13 03:48:13;;;;;;;38.00;19.00;;;;;;;1.38;100.00;100339.63;104545;1256;60943;-52
2023/12/13 03:50:41;;;;;;;40.20;18.70;;;;;;;1.38;100.00;100336.27;108809;1255;60057;-53
2023/12/13 03:53:08;;;;;;;40.30;19.90;;;;;;;1.37;100.00;100331.49;108814;1256;71813;-54
2023/12/13 03:55:35;;;;;;;34.40;16.80;;;;;;;1.38;100.00;100322.48;108809;1255;65938;-54
2023/12/13 03:58:03;;;;;;;39.50;19.00;;;;;;;1.40;100.00;100325.49;108767;1256;72761;-54
2023/12/13 04:00:31;;;;;;;40.40;18.70;;;;;;;1.43;100.00;100331.33;108770;1256;59317;-54
2023/12/13 04:02:59;;;;;;;40.10;19.20;;;;;;;1.45;100.00;100334.49;108726;1255;58837;-54
2023/12/13 04:05:26;;;;;;;42.30;21.30;;;;;;;1.46;100.00;100337.66;108797;1255;73651;-54
2023/12/13 04:07:54;;;;;;;35.70;18.20;;;;;;;1.48;100.00;100334.30;108531;1257;66744;-50
2023/12/13 04:10:21;;;;;;;40.90;19.60;;;;;;;1.49;100.00;100334.13;108774;1256;71449;-54
2023/12/13 04:12:49;;;;;;;38.20;18.30;;;;;;;1.51;100.00;100333.08;108809;1256;59676;-53
2023/12/13 04:15:16;;;;;;;38.40;17.40;;;;;;;1.52;100.00;100328.84;108758;1255;58814;-54
2023/12/13 04:17:44;;;;;;;36.20;17.20;;;;;;;1.54;100.00;100326.33;108730;1256;72961;-54
2023/12/13 04:20:11;;;;;;;34.10;18.40;;;;;;;1.56;100.00;100323.85;105246;1256;66011;-53
2023/12/13 04:22:39;;;;;;;37.50;18.20;;;;;;;1.59;100.00;100320.84;104776;1256;73110;-53
2023/12/13 04:25:06;;;;;;;39.70;19.30;;;;;;;1.60;100.00;100320.32;105746;1261;59323;-53
2023/12/13 04:27:34;;;;;;;43.00;20.80;;;;;;;1.60;100.00;100325.62;104439;1256;60657;-53
2023/12/13 04:30:02;;;;;;;43.60;19.60;;;;;;;1.60;100.00;100324.03;104531;1256;72055;-53
2023/12/13 04:32:29;;;;;;;41.50;19.20;;;;;;;1.59;100.00;100319.08;104434;1256;66114;-53
2023/12/13 04:34:58;;;;;;;39.70;19.00;;;;;;;1.59;100.00;100316.60;108600;1256;73151;-50
2023/12/13 04:37:26;;;;;;;31.00;15.80;;;;;;;1.59;100.00;100316.07;105274;1261;59753;-52
2023/12/13 04:39:53;;;;;;;37.10;17.40;;;;;;;1.60;100.00;100318.72;105003;1256;59973;-51
2023/12/13 04:42:21;;;;;;;42.90;20.10;;;;;;;1.60;100.00;100326.16;104959;1256;73116;-51
2023/12/13 04:44:49;;;;;;;42.90;20.80;;;;;;;1.60;100.00;100319.79;104892;1260;67429;-53
2023/12/13 04:47:17;;;;;;;42.10;20.70;;;;;;;1.60;100.00;100323.67;105220;1257;71271;-53
2023/12/13 04:49:45;;;;;;;47.30;21.70;;;;;;;1.61;100.00;100333.58;105505;1255;59762;-51
2023/12/13 04:52:13;;;;;;;46.20;22.40;;;;;;;1.61;100.00;100332.70;105705;1258;59570;-52
2023/12/13 04:54:41;;;;;;;42.40;20.70;;;;;;;1.61;100.00;100335.00;104777;1260;71833;-52
2023/12/13 04:57:09;;;;;;;40.00;19.60;;;;;;;1.60;100.00;100338.71;104772;1256;65502;-53
2023/12/13 04:59:36;;;;;;;47.20;21.30;;;;;;;1.60;100.00;100336.59;104874;1259;72741;-52
2023/12/13 05:02:03;;;;;;;39.90;18.30;;;;;;;1.60;100.00;100336.77;104682;1260;60994;-52
2023/12/13 05:04:31;;;;;;;42.30;19.60;;;;;;;1.59;100.00;100340.84;105100;1256;60067;-52
2023/12/13 05:06:59;;;;;;;38.10;19.00;;;;;;;1.59;100.00;100345.61;104667;1256;73115;-53
2023/12/13 05:09:26;;;;;;;45.40;21.20;;;;;;;1.60;100.00;100344.90;104566;1261;66832;-53
2023/12/13 05:11:54;;;;;;;42.00;20.90;;;;;;;1.60;100.00;100347.91;104722;1256;72662;-53
2023/12/13 05:14:21;;;;;;;41.60;20.60;;;;;;;1.60;100.00;100348.98;104500;1256;59574;-53
2023/12/13 05:16:49;;;;;;;45.10;21.40;;;;;;;1.60;100.00;100347.55;104615;1260;60020;-53
2023/12/13 05:19:16;;;;;;;44.50;21.10;;;;;;;1.59;100.00;100344.91;104985;1260;72930;-53
2023/12/13 05:21:44;;;;;;;42.80;18.50;;;;;;;1.59;100.00;100349.33;104770;1255;65759;-52
2023/12/13 05:24:11;;;;;;;42.40;19.40;;;;;;;1.59;100.00;100356.23;104852;1257;71446;-53
2023/12/13 05:26:39;;;;;;;40.60;19.10;;;;;;;1.60;100.00;100357.64;104719;1257;59687;-52
2023/12/13 05:29:06;;;;;;;40.90;19.80;;;;;;;1.61;100.00;100355.16;104626;1257;59872;-53
2023/12/13 05:31:34;;;;;;;41.40;19.00;;;;;;;1.62;100.00;100355.85;104802;1261;73030;-53
2023/12/13 05:34:02;;;;;;;41.00;19.80;;;;;;;1.62;100.00;100355.14;104649;1259;69215;-53
2023/12/13 05:36:30;;;;;;;45.60;22.70;;;;;;;1.64;100.00;100355.31;104725;1257;71213;-53
2023/12/13 05:38:58;;;;;;;49.60;22.70;;;;;;;1.64;100.00;100356.38;104745;1260;59649;-53
2023/12/13 05:41:25;;;;;;;53.00;22.50;;;;;;;1.66;100.00;100354.43;104520;1256;60561;-52
2023/12/13 05:43:53;;;;;;;48.70;22.20;;;;;;;1.66;100.00;100355.48;104844;1260;73140;-51
2023/12/13 05:46:20;;;;;;;42.60;20.00;;;;;;;1.66;100.00;100357.97;104655;1261;65590;-52
2023/12/13 05:48:48;;;;;;;43.90;20.50;;;;;;;1.66;100.00;100356.38;104615;1261;71755;-53
2023/12/13 05:51:15;;;;;;;36.80;18.80;;;;;;;1.66;100.00;100360.27;104610;1256;59742;-53
2023/12/13 05:53:43;;;;;;;41.40;21.00;;;;;;;1.66;100.00;100358.85;104707;1257;59680;-53
2023/12/13 05:56:11;;;;;;;47.10;22.50;;;;;;;1.67;100.00;100362.21;104734;1256;73989;-54
2023/12/13 05:58:38;;;;;;;44.70;20.80;;;;;;;1.69;100.00;100365.23;104720;1256;65203;-52
2023/12/13 06:01:06;;;;;;;45.80;21.40;;;;;;;1.68;100.00;100366.46;105661;1256;71758;-53
2023/12/13 06:03:34;;;;;;;49.60;21.80;;;;;;;1.68;100.00;100366.29;105497;1256;59559;-53
2023/12/13 06:06:03;;;;;;;51.70;26.10;;;;;;;1.67;100.00;100365.40;104645;1256;59644;-53
2023/12/13 06:08:31;;;;;;;51.90;28.50;;;;;;;1.67;100.00;100363.64;105050;1257;71849;-53
2023/12/13 06:10:59;;;;;;;62.60;41.00;;;;;;;1.66;100.00;100367.34;104513;1256;66920;-53
2023/12/13 06:13:26;;;;;;;130.30;107.20;;;;;;;1.66;100.00;100368.41;105500;1260;70946;-53
2023/12/13 06:15:54;;;;;;;93.50;71.40;;;;;;;1.67;100.00;100371.24;105140;1256;59651;-52
2023/12/13 06:18:21;;;;;;;91.20;63.00;;;;;;;1.69;100.00;100370.89;104571;1260;60447;-53
2023/12/13 06:20:49;;;;;;;80.20;50.60;;;;;;;1.69;100.00;100374.79;104827;1257;70809;-54
2023/12/13 06:23:16;;;;;;;88.30;54.10;;;;;;;1.69;100.00;100371.60;104537;1259;68247;-53
2023/12/13 06:25:44;;;;;;;150.50;85.90;;;;;;;1.68;100.00;100376.91;104620;1260;72639;-52
2023/12/13 06:28:11;;;;;;;90.50;49.30;;;;;;;1.68;100.00;100378.67;104750;1256;59653;-53
2023/12/13 06:30:39;;;;;;;84.00;46.90;;;;;;;1.67;100.00;100379.55;104495;1253;60597;-53
2023/12/13 06:33:06;;;;;;;54.00;24.80;;;;;;;1.67;100.00;100382.20;104625;1253;72181;-52
2023/12/13 06:35:35;;;;;;;52.30;24.00;;;;;;;1.66;100.00;100383.09;108962;1253;65777;-53
2023/12/13 06:38:02;;;;;;;51.60;25.90;;;;;;;1.66;100.00;100388.58;109050;1253;72152;-53
2023/12/13 06:40:30;;;;;;;54.20;27.00;;;;;;;1.66;100.00;100395.12;108972;1253;59334;-53
2023/12/13 06:42:58;;;;;;;59.50;31.70;;;;;;;1.66;100.00;100397.59;108933;1259;58790;-54
2023/12/13 06:45:25;;;;;;;48.30;23.10;;;;;;;1.67;100.00;100396.54;105999;1253;73825;-53
2023/12/13 06:47:53;;;;;;;47.50;23.30;;;;;;;1.68;100.00;100395.30;104941;1258;66212;-52
2023/12/13 06:50:20;;;;;;;47.70;23.80;;;;;;;1.70;100.00;100396.02;104895;1253;73964;-51
2023/12/13 06:52:48;;;;;;;57.90;28.70;;;;;;;1.70;100.00;100397.77;104811;1256;60436;-52
2023/12/13 06:55:16;;;;;;;58.30;26.10;;;;;;;1.72;100.00;100400.23;108865;1253;60050;-53
2023/12/13 06:57:45;;;;;;;50.50;24.90;;;;;;;1.73;100.00;100399.52;109010;1253;74259;-53
2023/12/13 07:00:13;;;;;;;59.50;28.20;;;;;;;1.74;100.00;100397.59;109075;1253;67516;-53
2023/12/13 07:02:41;;;;;;;62.40;28.70;;;;;;;1.75;100.00;100403.59;109022;1253;72590;-53
2023/12/13 07:05:08;;;;;;;58.60;27.00;;;;;;;1.77;100.00;100409.79;109018;1253;59209;-53
2023/12/13 07:07:36;;;;;;;58.60;27.10;;;;;;;1.77;100.00;100410.15;108945;1252;58853;-53
2023/12/13 07:10:04;;;;;;;61.80;27.80;;;;;;;1.78;100.00;100409.25;109075;1257;71809;-52
2023/12/13 07:12:31;;;;;;;61.80;27.90;;;;;;;1.79;100.00;100412.60;108948;1253;66785;-53
2023/12/13 07:14:59;;;;;;;55.10;25.60;;;;;;;1.81;100.00;100413.84;109007;1253;72714;-53
2023/12/13 07:17:26;;;;;;;59.10;24.90;;;;;;;1.82;100.00;100415.95;107434;1259;60673;-52
2023/12/13 07:19:54;;;;;;;51.80;22.60;;;;;;;1.81;100.00;100412.42;104953;1257;60396;-53
2023/12/13 07:22:21;;;;;;;53.00;24.80;;;;;;;1.82;100.00;100414.90;104606;1253;72674;-52
2023/12/13 07:24:49;;;;;;;53.80;25.80;;;;;;;1.84;100.00;100414.91;104753;1253;66644;-51
2023/12/13 07:27:16;;;;;;;56.00;26.20;;;;;;;1.85;100.00;100409.41;104819;1256;72720;-53
2023/12/13 07:29:44;;;;;;;51.00;24.60;;;;;;;1.86;100.00;100415.61;104663;1259;60645;-53
2023/12/13 07:32:11;;;;;;;52.50;26.10;;;;;;;1.86;100.00;100415.80;104874;1253;60446;-53
2023/12/13 07:34:41;;;;;;;52.70;24.60;;;;;;;1.87;100.00;100424.45;105159;1253;72613;-52
2023/12/13 07:37:09;;;;;;;53.80;25.50;;;;;;;1.87;100.00;100424.27;105308;1253;66717;-52
2023/12/13 07:39:36;;;;;;;49.50;22.20;;;;;;;1.87;100.00;100424.80;104632;1253;73119;-53
2023/12/13 07:42:04;;;;;;;45.40;21.90;;;;;;;1.88;100.00;100419.48;105129;1258;61440;-52
2023/12/13 07:44:33;;;;;;;43.80;21.60;;;;;;;1.88;100.00;100417.53;104969;1254;60543;-54
2023/12/13 07:47:01;;;;;;;39.50;17.60;;;;;;;1.91;100.00;100420.36;105089;1253;73853;-53
2023/12/13 07:49:28;;;;;;;48.60;22.50;;;;;;;1.94;100.00;100419.84;108229;1253;64644;-54
2023/12/13 07:51:56;;;;;;;50.40;23.50;;;;;;;1.96;100.00;100415.93;104770;1257;73143;-52
2023/12/13 07:54:24;;;;;;;49.20;24.00;;;;;;;2.00;100.00;100419.45;104665;1253;60431;-51
2023/12/13 07:56:53;;;;;;;42.50;21.90;;;;;;;2.02;100.00;100419.98;104830;1259;60550;-52
2023/12/13 07:59:20;;;;;;;48.90;20.50;;;;;;;2.04;100.00;100424.23;105260;1253;72843;-52
2023/12/13 08:01:48;;;;;;;48.70;23.10;;;;;;;2.06;100.00;100419.06;105207;1257;67724;-52
2023/12/13 08:04:16;;;;;;;39.80;20.20;;;;;;;2.09;100.00;100417.48;104863;1257;71478;-53
2023/12/13 08:06:43;;;;;;;44.60;19.20;;;;;;;2.12;100.00;100414.11;104918;1259;60918;-52
2023/12/13 08:09:11;;;;;;;37.60;20.00;;;;;;;2.15;100.00;100413.38;104774;1253;60533;-53
2023/12/13 08:11:38;;;;;;;40.50;20.00;;;;;;;2.19;100.00;100415.15;104950;1253;71602;-52
2023/12/13 08:14:06;;;;;;;40.90;19.10;;;;;;;2.22;100.00;100420.61;105105;1258;66117;-53
2023/12/13 08:16:33;;;;;;;38.20;18.50;;;;;;;2.24;100.00;100420.23;104790;1253;72747;-53
2023/12/13 08:19:01;;;;;;;39.80;20.40;;;;;;;2.25;100.00;100420.95;105056;1253;60504;-54
2023/12/13 08:21:29;;;;;;;41.70;19.20;;;;;;;2.27;100.00;100428.04;104850;1258;60422;-52
2023/12/13 08:23:57;;;;;;;37.60;18.40;;;;;;;2.28;100.00;100423.44;104887;1253;72000;-52
2023/12/13 08:26:25;;;;;;;38.30;19.40;;;;;;;2.29;100.00;100427.33;104915;1253;65543;-53
2023/12/13 08:28:53;;;;;;;30.80;16.80;;;;;;;2.30;100.00;100420.23;105193;1253;71415;-52
2023/12/13 08:31:33;;;;;;;34.00;19.00;;;;;;;2.32;100.00;100426.77;105081;1258;60893;-52
2023/12/13 08:34:00;;;;;;;39.80;22.10;;;;;;;2.34;100.00;100417.20;105110;1252;61074;-54
2023/12/13 08:36:28;;;;;;;38.60;17.70;;;;;;;2.36;100.00;100422.16;104831;1253;74479;-53
2023/12/13 08:38:55;;;;;;;35.90;18.30;;;;;;;2.36;100.00;100424.82;104809;1257;65674;-54
2023/12/13 08:41:23;;;;;;;35.20;19.10;;;;;;;2.37;100.00;100428.53;104879;1259;71860;-54
2023/12/13 08:43:50;;;;;;;42.90;22.80;;;;;;;2.38;100.00;100426.05;104821;1259;60408;-54
2023/12/13 08:46:18;;;;;;;49.00;26.50;;;;;;;2.39;100.00;100426.37;105078;1255;60423;-54
2023/12/13 08:48:46;;;;;;;39.60;19.90;;;;;;;2.40;100.00;100431.34;104676;1253;71639;-54
2023/12/13 08:51:13;;;;;;;35.70;17.00;;;;;;;2.41;100.00;100433.80;106062;1255;65628;-53
2023/12/13 08:53:41;;;;;;;35.00;19.10;;;;;;;2.44;100.00;100432.57;104792;1256;70849;-55
2023/12/13 08:56:09;;;;;;;37.20;19.20;;;;;;;2.45;100.00;100436.83;105521;1255;60512;-55
2023/12/13 08:58:37;;;;;;;34.20;19.20;;;;;;;2.47;100.00;100435.02;104673;1253;61364;-54
2023/12/13 09:01:05;;;;;;;38.80;19.10;;;;;;;2.48;100.00;100432.71;106829;1253;72563;-55
2023/12/13 09:03:32;;;;;;;35.40;17.00;;;;;;;2.50;100.00;100434.13;105890;1258;65955;-55
2023/12/13 09:06:01;;;;;;;33.40;17.00;;;;;;;2.50;100.00;100432.54;104808;1256;71646;-54
2023/12/13 09:08:29;;;;;;;32.30;16.40;;;;;;;2.51;100.00;100439.44;105501;1253;60456;-55
2023/12/13 09:10:56;;;;;;;33.90;18.90;;;;;;;2.53;100.00;100441.21;104740;1253;60520;-54
2023/12/13 09:13:24;;;;;;;35.00;19.10;;;;;;;2.55;100.00;100443.69;104886;1259;73914;-55
2023/12/13 09:15:51;;;;;;;35.70;19.20;;;;;;;2.56;100.00;100446.13;105250;1257;67808;-54
2023/12/13 09:18:19;;;;;;;36.10;18.10;;;;;;;2.56;100.00;100446.66;104657;1253;73200;-55
2023/12/13 09:20:46;;;;;;;35.40;18.10;;;;;;;2.57;100.00;100446.14;105017;1253;60513;-54
2023/12/13 09:23:24;;;;;;;36.60;19.50;;;;;;;2.58;100.00;100448.96;104694;1258;60442;-54
2023/12/13 09:25:54;;;;;;;38.10;18.90;;;;;;;2.58;100.00;100454.64;104700;1258;74320;-55
2023/12/13 09:28:22;;;;;;;37.50;19.30;;;;;;;2.59;100.00;100452.34;108213;1260;67253;-55
2023/12/13 09:30:50;;;;;;;35.10;18.20;;;;;;;2.61;100.00;100454.46;104730;1262;72656;-55
2023/12/13 09:33:17;;;;;;;36.80;20.50;;;;;;;2.63;100.00;100453.56;104523;1258;60651;-55
2023/12/13 09:35:45;;;;;;;35.00;20.80;;;;;;;2.65;100.00;100451.77;104678;1259;61670;-55
2023/12/13 09:38:12;;;;;;;42.50;23.30;;;;;;;2.65;100.00;100456.02;105015;1253;72614;-55
2023/12/13 09:40:40;;;;;;;37.30;19.20;;;;;;;2.66;100.00;100458.31;104689;1259;65865;-55
2023/12/13 09:43:07;;;;;;;34.30;19.40;;;;;;;2.68;100.00;100462.04;108976;1253;71197;-55
2023/12/13 09:45:35;;;;;;;31.60;18.60;;;;;;;2.70;100.00;100460.62;108954;1254;61801;-56
2023/12/13 09:48:02;;;;;;;34.00;20.00;;;;;;;2.72;100.00;100460.06;108979;1253;58726;-56
2023/12/13 09:50:30;;;;;;;37.20;21.00;;;;;;;2.77;100.00;100458.98;109000;1255;74469;-55
2023/12/13 09:52:57;;;;;;;43.40;25.20;;;;;;;2.81;100.00;100459.13;106625;1260;67001;-55
2023/12/13 09:55:25;;;;;;;39.90;21.50;;;;;;;2.84;100.00;100465.48;104782;1261;74932;-54
2023/12/13 09:57:53;;;;;;;38.00;19.70;;;;;;;2.87;100.00;100465.66;108950;1253;60707;-55
2023/12/13 10:00:20;;;;;;;32.50;19.70;;;;;;;2.91;100.00;100463.14;109095;1257;58722;-56
2023/12/13 10:02:48;;;;;;;30.00;17.40;;;;;;;2.95;100.00;100462.23;108874;1253;73929;-56
2023/12/13 10:05:17;;;;;;;34.10;19.10;;;;;;;2.99;100.00;100463.27;108977;1259;67028;-56
2023/12/13 10:07:44;;;;;;;40.30;23.60;;;;;;;3.05;100.00;100464.31;109015;1254;71539;-56
2023/12/13 10:10:12;;;;;;;39.40;22.50;;;;;;;3.09;100.00;100461.96;107284;1259;60556;-54
2023/12/13 10:12:39;;;;;;;39.40;23.30;;;;;;;3.15;100.00;100460.87;104892;1259;60537;-53
2023/12/13 10:15:10;;;;;;;36.70;20.60;;;;;;;3.18;100.00;100457.83;104979;1259;74631;-55
2023/12/13 10:17:39;;;;;;;46.10;23.70;;;;;;;3.24;100.00;100461.69;105292;1259;67049;-55
2023/12/13 10:20:08;;;;;;;35.30;20.70;;;;;;;3.29;100.00;100460.95;109056;1253;73261;-56
2023/12/13 10:22:36;;;;;;;39.00;24.50;;;;;;;3.33;100.00;100460.36;108616;1254;59141;-55
2023/12/13 10:25:05;;;;;;;36.20;21.20;;;;;;;3.37;100.00;100461.58;105301;1262;60348;-55
2023/12/13 10:27:32;;;;;;;38.40;21.90;;;;;;;3.43;100.00;100465.96;104643;1254;73904;-55
2023/12/13 10:30:01;;;;;;;32.50;20.60;;;;;;;3.49;100.00;100470.37;104692;1258;67816;-54
2023/12/13 10:32:29;;;;;;;30.60;19.00;;;;;;;3.55;100.00;100470.84;105210;1256;72718;-54
2023/12/13 10:34:57;;;;;;;36.60;22.20;;;;;;;3.59;100.00;100475.77;105259;1258;60440;-55
2023/12/13 10:37:26;;;;;;;31.10;20.10;;;;;;;3.63;100.00;100483.02;104779;1259;60585;-56
2023/12/13 10:39:55;;;;;;;34.10;19.40;;;;;;;3.65;100.00;100485.32;104804;1259;73862;-55
2023/12/13 10:42:24;;;;;;;27.50;16.20;;;;;;;3.67;100.00;100484.40;104884;1253;67029;-56
2023/12/13 10:44:52;;;;;;;26.10;15.60;;;;;;;3.68;100.00;100478.70;108915;1254;73538;-56
2023/12/13 10:47:23;;;;;;;26.40;15.90;;;;;;;3.72;100.00;100482.23;107083;1259;61883;-57
2023/12/13 10:49:54;;;;;;;28.30;16.90;;;;;;;3.75;100.00;100485.38;105010;1259;60604;-55
2023/12/13 10:52:24;;;;;;;26.00;16.50;;;;;;;3.78;100.00;100480.40;104865;1254;72734;-54
2023/12/13 10:54:52;;;;;;;28.30;16.60;;;;;;;3.79;100.00;100472.05;105313;1253;66993;-54
2023/12/13 10:57:19;;;;;;;30.40;17.60;;;;;;;3.78;100.00;100473.48;104892;1256;72705;-53
2023/12/13 10:59:48;;;;;;;34.00;18.10;;;;;;;3.75;100.00;100470.83;104795;1258;61023;-54
2023/12/13 11:02:16;;;;;;;30.30;17.80;;;;;;;3.71;100.00;100475.85;104738;1260;59754;-52
2023/12/13 11:04:44;;;;;;;30.20;17.70;;;;;;;3.69;100.00;100477.98;105008;1261;72643;-55